createdAt,value
2022-07-28T00:01:12.668Z,101936.81
2022-07-28T00:04:10.809Z,101950.06
2022-07-28T00:07:08.608Z,101943.91
2022-07-28T00:10:06.004Z,101955.66
2022-07-28T00:13:03.917Z,101942.75
2022-07-28T00:16:04.962Z,101939.00
2022-07-28T00:19:02.547Z,101938.31
2022-07-28T00:21:59.645Z,101951.81
2022-07-28T00:24:56.561Z,101967.25
2022-07-28T00:27:53.512Z,101949.78
2022-07-28T00:30:50.467Z,101953.44
2022-07-28T00:33:47.395Z,101947.31
2022-07-28T00:36:44.480Z,101944.00
2022-07-28T00:39:41.757Z,101941.69
2022-07-28T00:42:39.473Z,101954.88
2022-07-28T00:45:36.249Z,101946.03
2022-07-28T00:48:33.306Z,101931.44
2022-07-28T00:51:30.663Z,101923.94
2022-07-28T00:54:27.547Z,101917.84
2022-07-28T00:57:24.503Z,101930.31
2022-07-28T01:00:21.748Z,101940.88
2022-07-28T01:03:18.710Z,101943.69
2022-07-28T01:06:43.998Z,101939.50
2022-07-28T01:09:46.016Z,101935.91
2022-07-28T01:12:55.961Z,101947.63
2022-07-28T01:16:00.430Z,101936.63
2022-07-28T01:19:19.172Z,101936.72
2022-07-28T01:22:19.477Z,101936.22
2022-07-28T01:25:53.837Z,101921.25
2022-07-28T01:29:20.631Z,101908.66
2022-07-28T01:32:25.895Z,101896.59
2022-07-28T01:35:25.169Z,101895.72
2022-07-28T01:38:23.279Z,101909.16
2022-07-28T01:41:21.841Z,101903.88
2022-07-28T01:44:20.533Z,101921.72
2022-07-28T01:47:17.747Z,101914.50
2022-07-28T01:50:15.806Z,101904.59
2022-07-28T01:53:13.355Z,101892.91
2022-07-28T01:56:11.520Z,101886.88
2022-07-28T01:59:09.910Z,101880.03
2022-07-28T02:02:07.504Z,101885.53
2022-07-28T02:05:05.015Z,101877.38
2022-07-28T02:08:03.297Z,101888.31
2022-07-28T02:11:19.160Z,101898.06
2022-07-28T02:14:19.374Z,101890.88
2022-07-28T02:17:18.827Z,101900.34
2022-07-28T02:20:16.714Z,101902.75
2022-07-28T02:23:15.426Z,101903.94
2022-07-28T02:26:14.134Z,101894.28
2022-07-28T02:29:27.646Z,101890.78
2022-07-28T02:32:45.460Z,101890.75
2022-07-28T02:35:50.918Z,101895.06
2022-07-28T02:38:49.666Z,101902.91
2022-07-28T02:41:46.853Z,101906.66
2022-07-28T02:44:45.515Z,101910.25
2022-07-28T02:48:06.154Z,101908.34
2022-07-28T02:51:03.655Z,101901.81
2022-07-28T02:54:00.894Z,101884.97
2022-07-28T02:56:57.903Z,101888.97
2022-07-28T02:59:55.547Z,101883.47
2022-07-28T03:02:53.644Z,101892.81
2022-07-28T03:05:50.409Z,101888.81
2022-07-28T03:08:47.560Z,101878.44
2022-07-28T03:11:53.755Z,101893.63
2022-07-28T03:14:50.783Z,101902.94
2022-07-28T03:17:47.843Z,101907.19
2022-07-28T03:20:44.321Z,101905.31
2022-07-28T03:23:42.842Z,101915.22
2022-07-28T03:26:41.394Z,101916.91
2022-07-28T03:29:39.010Z,101919.03
2022-07-28T03:32:38.990Z,101921.25
2022-07-28T03:35:37.821Z,101913.16
2022-07-28T03:38:58.646Z,101917.41
2022-07-28T03:41:56.012Z,101912.97
2022-07-28T03:44:54.083Z,101907.28
2022-07-28T03:47:58.457Z,101929.06
2022-07-28T03:50:55.438Z,101940.91
2022-07-28T03:53:52.539Z,101936.19
2022-07-28T03:56:49.936Z,101932.53
2022-07-28T03:59:46.686Z,101942.22
2022-07-28T04:02:44.420Z,101934.19
2022-07-28T04:05:41.654Z,101933.47
2022-07-28T04:08:38.790Z,101922.78
2022-07-28T04:11:35.676Z,101918.59
2022-07-28T04:14:32.872Z,101918.94
2022-07-28T04:17:29.830Z,101926.47
2022-07-28T04:20:27.197Z,101934.66
2022-07-28T04:23:24.821Z,101926.13
2022-07-28T04:26:21.701Z,101907.88
2022-07-28T04:29:23.451Z,101906.78
2022-07-28T04:32:24.819Z,101926.56
2022-07-28T04:35:24.201Z,101911.56
2022-07-28T04:38:21.509Z,101905.06
2022-07-28T04:41:18.940Z,101909.56
2022-07-28T04:44:17.600Z,101915.72
2022-07-28T04:47:14.574Z,101914.19
2022-07-28T04:50:12.720Z,101919.00
2022-07-28T04:53:09.694Z,101921.59
2022-07-28T04:56:06.519Z,101914.59
2022-07-28T04:59:04.641Z,101917.22
2022-07-28T05:02:01.843Z,101909.91
2022-07-28T05:04:58.873Z,101921.59
2022-07-28T05:07:56.064Z,101926.16
2022-07-28T05:10:54.876Z,101923.97
2022-07-28T05:13:52.007Z,101921.72
2022-07-28T05:16:48.542Z,101914.88
2022-07-28T05:19:45.831Z,101911.19
2022-07-28T05:22:47.797Z,101903.66
2022-07-28T05:25:44.497Z,101912.38
2022-07-28T05:28:42.006Z,101908.22
2022-07-28T05:31:39.288Z,101913.72
2022-07-28T05:34:36.577Z,101923.88
2022-07-28T05:37:35.434Z,101922.41
2022-07-28T05:40:32.965Z,101921.31
2022-07-28T05:43:29.714Z,101917.66
2022-07-28T05:46:27.698Z,101928.91
2022-07-28T05:49:25.276Z,101928.31
2022-07-28T05:52:23.020Z,101933.88
2022-07-28T05:55:20.793Z,101938.34
2022-07-28T05:58:21.281Z,101943.66
2022-07-28T06:01:18.725Z,101940.50
2022-07-28T06:04:31.566Z,101932.44
2022-07-28T06:07:42.396Z,101932.94
2022-07-28T06:11:02.063Z,101932.91
2022-07-28T06:13:58.984Z,101942.72
2022-07-28T06:16:56.900Z,101943.16
2022-07-28T06:19:53.494Z,101940.66
2022-07-28T06:22:52.621Z,101948.47
2022-07-28T06:25:53.258Z,101948.13
2022-07-28T06:28:50.912Z,101948.59
2022-07-28T06:31:48.129Z,101948.31
2022-07-28T06:34:45.809Z,101948.34
2022-07-28T06:37:47.056Z,101943.38
2022-07-28T06:40:44.281Z,101948.69
2022-07-28T06:43:42.213Z,101955.69
2022-07-28T06:46:39.926Z,101945.56
2022-07-28T06:49:36.860Z,101959.63
2022-07-28T06:52:34.415Z,101956.16
2022-07-28T06:55:35.560Z,101963.44
2022-07-28T06:58:32.963Z,101950.09
2022-07-28T07:01:30.303Z,101965.25
2022-07-28T07:04:28.881Z,101959.25
2022-07-28T07:07:26.411Z,101964.75
2022-07-28T07:10:23.958Z,101956.66
2022-07-28T07:13:21.193Z,101965.19
2022-07-28T07:16:19.554Z,101961.81
2022-07-28T07:19:16.847Z,101949.69
2022-07-28T07:22:14.816Z,101948.81
2022-07-28T07:25:13.117Z,101951.75
2022-07-28T07:28:09.728Z,101946.25
2022-07-28T07:31:07.251Z,101958.66
2022-07-28T07:34:05.028Z,101962.06
2022-07-28T07:37:01.932Z,101942.44
2022-07-28T07:40:01.816Z,101961.28
2022-07-28T07:42:59.002Z,101965.94
2022-07-28T07:45:56.029Z,101948.56
2022-07-28T07:48:52.958Z,101942.63
2022-07-28T07:51:49.985Z,101941.16
2022-07-28T07:54:46.855Z,101929.81
2022-07-28T07:57:44.308Z,101945.66
2022-07-28T08:00:41.814Z,101954.06
2022-07-28T08:03:39.467Z,101957.84
2022-07-28T08:06:36.885Z,101940.78
2022-07-28T08:09:37.137Z,101940.91
2022-07-28T08:12:33.862Z,101941.41
2022-07-28T08:15:31.020Z,101927.88
2022-07-28T08:18:28.082Z,101929.59
2022-07-28T08:21:28.376Z,101924.03
2022-07-28T08:24:31.617Z,101924.22
2022-07-28T08:27:30.794Z,101937.31
2022-07-28T08:30:32.425Z,101934.19
2022-07-28T08:33:30.448Z,101930.22
2022-07-28T08:36:28.202Z,101914.75
2022-07-28T08:39:24.743Z,101924.56
2022-07-28T08:42:28.308Z,101931.19
2022-07-28T08:45:26.273Z,101925.72
2022-07-28T08:48:25.651Z,101915.13
2022-07-28T08:51:23.314Z,101910.28
2022-07-28T08:54:21.873Z,101923.72
2022-07-28T08:57:30.942Z,101916.94
2022-07-28T09:00:28.005Z,101925.19
2022-07-28T09:03:24.743Z,101930.34
2022-07-28T09:06:22.197Z,101915.75
2022-07-28T09:09:21.691Z,101904.31
2022-07-28T09:12:18.973Z,101926.16
2022-07-28T09:15:23.843Z,101923.91
2022-07-28T09:18:21.162Z,101917.69
2022-07-28T09:21:18.096Z,101904.91
2022-07-28T09:24:33.981Z,101910.78
2022-07-28T09:27:44.500Z,101908.84
2022-07-28T09:30:53.725Z,101914.25
2022-07-28T09:34:04.525Z,101897.72
2022-07-28T09:37:01.624Z,101918.47
2022-07-28T09:39:59.461Z,101902.66
2022-07-28T09:42:58.254Z,101918.47
2022-07-28T09:46:09.539Z,101904.09
2022-07-28T09:49:07.454Z,101890.22
2022-07-28T09:52:07.123Z,101905.44
2022-07-28T09:55:11.012Z,101886.94
2022-07-28T09:58:09.744Z,101904.81
2022-07-28T10:01:15.685Z,101903.47
2022-07-28T10:04:12.840Z,101894.97
2022-07-28T10:07:14.116Z,101902.09
2022-07-28T10:10:11.433Z,101876.94
2022-07-28T10:13:09.497Z,101883.78
2022-07-28T10:16:12.686Z,101874.53
2022-07-28T10:19:09.854Z,101877.22
2022-07-28T10:22:06.936Z,101874.22
2022-07-28T10:25:09.995Z,101878.22
2022-07-28T10:28:06.775Z,101880.44
2022-07-28T10:31:05.435Z,101890.91
2022-07-28T10:34:04.096Z,101872.72
2022-07-28T10:37:03.379Z,101884.03
2022-07-28T10:40:00.826Z,101884.53
2022-07-28T10:42:59.017Z,101890.81
2022-07-28T10:46:05.655Z,101877.22
2022-07-28T10:49:05.171Z,101871.56
2022-07-28T10:52:19.702Z,101880.25
2022-07-28T10:55:40.889Z,101869.97
2022-07-28T10:59:04.704Z,101869.13
2022-07-28T11:02:02.141Z,101874.88
2022-07-28T11:05:01.831Z,101887.69
2022-07-28T11:08:06.262Z,101883.19
2022-07-28T11:11:07.782Z,101875.81
2022-07-28T11:14:39.027Z,101874.53
2022-07-28T11:17:37.258Z,101881.22
2022-07-28T11:20:53.453Z,101867.22
2022-07-28T11:23:57.466Z,101878.75
2022-07-28T11:26:55.057Z,101867.22
2022-07-28T11:29:51.892Z,101854.84
2022-07-28T11:32:53.300Z,101875.03
2022-07-28T11:35:58.027Z,101848.28
2022-07-28T11:39:26.540Z,101855.34
2022-07-28T11:42:26.192Z,101842.63
2022-07-28T11:45:26.626Z,101851.22
2022-07-28T11:48:35.521Z,101848.28
2022-07-28T11:51:38.751Z,101846.69
2022-07-28T11:54:50.645Z,101845.81
2022-07-28T11:57:53.533Z,101859.91
2022-07-28T12:00:50.850Z,101860.72
2022-07-28T12:03:55.107Z,101849.63
2022-07-28T12:06:53.157Z,101838.94
2022-07-28T12:09:50.959Z,101838.50
2022-07-28T12:12:56.165Z,101839.75
2022-07-28T12:15:53.041Z,101823.75
2022-07-28T12:18:52.609Z,101836.91
2022-07-28T12:21:53.316Z,101832.78
2022-07-28T12:24:57.083Z,101827.44
2022-07-28T12:27:55.305Z,101820.03
2022-07-28T12:30:52.240Z,101811.41
2022-07-28T12:33:51.033Z,101822.50
2022-07-28T12:36:48.430Z,101830.28
2022-07-28T12:39:53.179Z,101815.09
2022-07-28T12:42:53.697Z,101812.59
2022-07-28T12:45:51.312Z,101819.88
2022-07-28T12:48:48.846Z,101800.56
2022-07-28T12:51:46.399Z,101806.75
2022-07-28T12:54:50.456Z,101796.53
2022-07-28T12:57:52.901Z,101789.97
2022-07-28T13:00:50.816Z,101797.81
2022-07-28T13:03:53.566Z,101797.41
2022-07-28T13:06:57.107Z,101792.47
2022-07-28T13:10:05.820Z,101797.00
2022-07-28T13:13:09.265Z,101798.91
2022-07-28T13:16:16.372Z,101795.19
2022-07-28T13:19:20.950Z,101797.66
2022-07-28T13:22:32.863Z,101782.47
2022-07-28T13:25:30.245Z,101779.28
2022-07-28T13:28:29.256Z,101789.09
2022-07-28T13:31:26.342Z,101783.25
2022-07-28T13:34:23.536Z,101786.91
2022-07-28T13:37:21.256Z,101791.38
2022-07-28T13:40:17.944Z,101780.66
2022-07-28T13:43:15.257Z,101783.44
2022-07-28T13:46:13.034Z,101773.69
2022-07-28T13:49:10.795Z,101769.56
2022-07-28T13:52:12.890Z,101767.53
2022-07-28T13:55:11.304Z,101774.16
2022-07-28T13:58:10.199Z,101776.50
2022-07-28T14:01:07.479Z,101760.97
2022-07-28T14:04:04.945Z,101752.00
2022-07-28T14:07:02.199Z,101759.31
2022-07-28T14:10:00.243Z,101763.28
2022-07-28T14:12:57.022Z,101757.16
2022-07-28T14:16:02.110Z,101758.75
2022-07-28T14:19:00.239Z,101760.22
2022-07-28T14:21:57.131Z,101750.13
2022-07-28T14:24:54.428Z,101752.72
2022-07-28T14:27:52.189Z,101751.88
2022-07-28T14:30:49.442Z,101755.41
2022-07-28T14:33:52.333Z,101765.97
2022-07-28T14:36:53.157Z,101765.81
2022-07-28T14:39:50.333Z,101754.50
2022-07-28T14:42:47.149Z,101754.06
2022-07-28T14:46:00.504Z,101751.88
2022-07-28T14:49:01.418Z,101751.13
2022-07-28T14:51:59.643Z,101749.22
2022-07-28T14:54:57.495Z,101740.50
2022-07-28T14:57:55.081Z,101738.94
2022-07-28T15:00:52.311Z,101740.09
2022-07-28T15:03:48.980Z,101729.28
2022-07-28T15:06:47.271Z,101753.66
2022-07-28T15:09:50.120Z,101743.63
2022-07-28T15:12:48.075Z,101738.72
2022-07-28T15:15:45.647Z,101724.53
2022-07-28T15:18:44.716Z,101736.31
2022-07-28T15:21:45.831Z,101748.47
2022-07-28T15:24:45.704Z,101743.06
2022-07-28T15:27:45.337Z,101745.41
2022-07-28T15:30:50.590Z,101734.00
2022-07-28T15:33:53.523Z,101734.59
2022-07-28T15:36:56.081Z,101731.66
2022-07-28T15:39:53.253Z,101721.47
2022-07-28T15:42:50.060Z,101727.00
2022-07-28T15:45:47.418Z,101725.38
2022-07-28T15:48:44.736Z,101724.72
2022-07-28T15:51:42.090Z,101721.97
2022-07-28T15:54:39.198Z,101728.31
2022-07-28T15:57:37.548Z,101728.19
2022-07-28T16:00:35.489Z,101728.47
2022-07-28T16:03:32.388Z,101717.34
2022-07-28T16:06:48.104Z,101712.72
2022-07-28T16:09:48.126Z,101717.47
2022-07-28T16:12:45.321Z,101709.28
2022-07-28T16:15:42.460Z,101698.44
2022-07-28T16:18:40.124Z,101706.09
2022-07-28T16:21:37.182Z,101684.16
2022-07-28T16:24:35.198Z,101701.38
2022-07-28T16:27:32.366Z,101696.91
2022-07-28T16:30:30.815Z,101705.00
2022-07-28T16:33:28.137Z,101697.78
2022-07-28T16:36:31.215Z,101697.47
2022-07-28T16:39:28.487Z,101701.84
2022-07-28T16:42:25.368Z,101697.34
2022-07-28T16:45:22.130Z,101685.00
2022-07-28T16:48:19.092Z,101700.19
2022-07-28T16:51:16.152Z,101701.75
2022-07-28T16:54:14.350Z,101700.16
2022-07-28T16:57:12.760Z,101704.38
2022-07-28T17:00:11.174Z,101696.09
2022-07-28T17:03:08.104Z,101703.78
2022-07-28T17:06:08.384Z,101705.06
2022-07-28T17:09:05.639Z,101701.00
2022-07-28T17:12:02.316Z,101706.47
2022-07-28T17:14:59.661Z,101698.78
2022-07-28T17:17:57.119Z,101693.47
2022-07-28T17:20:54.357Z,101697.28
2022-07-28T17:23:51.740Z,101698.84
2022-07-28T17:30:07.606Z,101702.66
2022-07-28T17:33:08.691Z,101709.84
2022-07-28T17:36:06.445Z,101707.22
2022-07-28T17:39:03.527Z,101706.66
2022-07-28T17:42:00.548Z,101701.16
2022-07-28T17:44:59.471Z,101693.00
2022-07-28T17:47:56.409Z,101696.44
2022-07-28T17:50:53.235Z,101703.91
2022-07-28T17:53:50.396Z,101695.38
2022-07-28T17:56:49.708Z,101706.91
2022-07-28T17:59:51.922Z,101711.03
2022-07-28T18:02:49.985Z,101708.09
2022-07-28T18:05:47.832Z,101713.06
2022-07-28T18:08:45.424Z,101695.00
2022-07-28T18:11:55.939Z,101709.78
2022-07-28T18:14:55.323Z,101704.06
2022-07-28T18:17:55.542Z,101689.75
2022-07-28T18:20:53.539Z,101704.13
2022-07-28T18:23:50.632Z,101694.69
2022-07-28T18:26:50.665Z,101695.09
2022-07-28T18:29:47.442Z,101699.25
2022-07-28T18:32:45.514Z,101705.38
2022-07-28T18:35:42.490Z,101702.13
2022-07-28T18:38:39.992Z,101688.56
2022-07-28T18:41:46.967Z,101691.44
2022-07-28T18:44:44.278Z,101686.09
2022-07-28T18:47:47.391Z,101686.09
2022-07-28T18:50:45.798Z,101686.06
2022-07-28T18:53:44.675Z,101680.72
2022-07-28T18:56:41.504Z,101683.16
2022-07-28T18:59:43.903Z,101688.13
2022-07-28T19:02:42.614Z,101685.25
2022-07-28T19:05:44.086Z,101686.00
2022-07-28T19:08:43.990Z,101695.00
2022-07-28T19:11:45.978Z,101687.53
2022-07-28T19:14:43.637Z,101701.53
2022-07-28T19:17:40.631Z,101702.88
2022-07-28T19:20:37.581Z,101699.91
2022-07-28T19:23:34.593Z,101716.34
2022-07-28T19:26:31.801Z,101717.56
2022-07-28T19:29:29.268Z,101707.63
2022-07-28T19:32:26.329Z,101703.06
2022-07-28T19:35:23.572Z,101710.00
2022-07-28T19:38:20.369Z,101709.56
2022-07-28T19:41:17.378Z,101719.78
2022-07-28T19:44:15.250Z,101712.25
2022-07-28T19:47:12.393Z,101711.47
2022-07-28T19:50:09.367Z,101718.00
2022-07-28T19:53:06.692Z,101714.69
2022-07-28T19:56:11.798Z,101723.66
2022-07-28T19:59:09.491Z,101722.72
2022-07-28T20:02:06.733Z,101722.34
2022-07-28T20:05:05.589Z,101723.25
2022-07-28T20:08:02.504Z,101724.38
2022-07-28T20:10:59.633Z,101728.72
2022-07-28T20:13:56.720Z,101730.19
2022-07-28T20:16:53.634Z,101731.84
2022-07-28T20:19:50.548Z,101739.66
2022-07-28T20:22:47.443Z,101741.44
2022-07-28T20:25:45.338Z,101735.50
2022-07-28T20:28:43.735Z,101735.63
2022-07-28T20:31:40.571Z,101746.31
2022-07-28T20:34:38.685Z,101739.56
2022-07-28T20:37:37.464Z,101743.50
2022-07-28T20:40:35.773Z,101753.13
2022-07-28T20:43:36.903Z,101750.25
2022-07-28T20:46:34.328Z,101753.44
2022-07-28T20:49:32.038Z,101754.72
2022-07-28T20:52:30.231Z,101757.06
2022-07-28T20:55:28.155Z,101746.53
2022-07-28T20:58:25.815Z,101747.09
2022-07-28T21:01:25.932Z,101750.66
2022-07-28T21:04:24.532Z,101747.69
2022-07-28T21:07:21.788Z,101759.72
2022-07-28T21:10:38.960Z,101764.66
2022-07-28T21:13:36.347Z,101755.53
2022-07-28T21:16:33.931Z,101765.28
2022-07-28T21:19:31.423Z,101760.97
2022-07-28T21:22:28.410Z,101766.72
2022-07-28T21:25:25.451Z,101757.13
2022-07-28T21:28:41.303Z,101764.31
2022-07-28T21:32:04.180Z,101778.69
2022-07-28T21:35:01.371Z,101775.31
2022-07-28T21:37:58.471Z,101775.84
2022-07-28T21:40:57.337Z,101776.69
2022-07-28T21:43:58.690Z,101774.88
2022-07-28T21:46:59.723Z,101772.72
2022-07-28T21:49:56.852Z,101764.97
2022-07-28T21:52:54.345Z,101767.88
2022-07-28T21:55:54.458Z,101783.13
2022-07-28T21:58:51.726Z,101793.06
2022-07-28T22:01:48.864Z,101775.69
2022-07-28T22:04:46.750Z,101788.69
2022-07-28T22:07:43.683Z,101785.53
2022-07-28T22:10:40.495Z,101795.66
2022-07-28T22:13:37.588Z,101784.94
2022-07-28T22:16:34.590Z,101769.75
2022-07-28T22:19:31.584Z,101774.00
2022-07-28T22:22:29.069Z,101792.94
2022-07-28T22:25:26.783Z,101786.78
2022-07-28T22:28:29.921Z,101777.78
2022-07-28T22:31:27.984Z,101783.16
2022-07-28T22:34:25.875Z,101795.56
2022-07-28T22:37:22.261Z,101800.63
2022-07-28T22:40:19.843Z,101787.53
2022-07-28T22:43:16.541Z,101786.44
2022-07-28T22:46:13.675Z,101799.59
2022-07-28T22:49:10.939Z,101800.72
2022-07-28T22:52:08.990Z,101791.13
2022-07-28T22:55:07.078Z,101807.50
2022-07-28T22:58:05.520Z,101804.63
2022-07-28T23:01:03.788Z,101783.22
2022-07-28T23:04:03.851Z,101795.34
2022-07-28T23:07:00.781Z,101795.44
2022-07-28T23:09:58.926Z,101805.41
2022-07-28T23:12:58.557Z,101804.69
2022-07-28T23:15:55.855Z,101793.13
2022-07-28T23:18:52.429Z,101795.50
2022-07-28T23:21:50.264Z,101800.72
2022-07-28T23:24:47.717Z,101782.09
2022-07-28T23:27:44.564Z,101796.06
2022-07-28T23:30:41.938Z,101777.66
2022-07-28T23:33:55.084Z,101782.91
2022-07-28T23:36:53.818Z,101777.81
2022-07-28T23:39:50.976Z,101771.09
2022-07-28T23:42:48.842Z,101773.19
2022-07-28T23:45:45.473Z,101775.63
2022-07-28T23:48:42.805Z,101770.59
2022-07-28T23:51:46.795Z,101767.53
2022-07-28T23:54:45.266Z,101756.66
2022-07-28T23:57:42.849Z,101770.31
